Adrian, Missouri
Current Conditions -  °F | °C
As of 10:15 AM on Wednesday 26 Nov 2014 (Local Time) from KGLY Reporting Station
Clear Clear  
Wind Chill: 36°   Ceiling: Unl
Heat Index: 43°   Visibility: 10mi
Dew Point: 37°   Wind: 13mph
Humidity: 81%   Direction: 280°W
Pressure: 29.99"   Gusts: 16mph
Location:  38.4°N, 94.35°W
Report Text: KGLY 261615Z AUTO 28011G14KT 10SM CLR 06/03 A2999 RMK AO2
Loading
Personal Weather Stations






























Interactive Weather Map New forecast layout! Learn more

10-Day Weather Forecast

Advertisements
Track Severe Weather on mobile